Time;durP1;ratioP1;P1;durP2;ratioP2;P2;SDS_P1;SDS_P2;PMS_P1;PMS_P2;Temp;Humidity;BMP_temperature;BMP_pressure;BME280_temperature;BME280_humidity;BME280_pressure;Samples;Min_cycle;Max_cycle;Signal;HPM_P1;HPM_P2
2023/04/14 00:00:05;;;;;;;;;;;;;;;;;;5132708;28;20462;-72
2023/04/14 00:02:32;;;;;;;;;;;;;;;;;;5133028;28;19924;-72
2023/04/14 00:04:59;;;;;;;;;;;;;;;;;;5132314;28;20306;-72
2023/04/14 00:07:26;;;;;;;;;;;;;;;;;;5132920;28;19945;-72
2023/04/14 00:09:53;;;;;;;;;;;;;;;;;;5133248;28;20297;-71
2023/04/14 00:12:20;;;;;;;;;;;;;;;;;;5132882;27;20374;-72
2023/04/14 00:14:47;;;;;;;;;;;;;;;;;;5135612;27;20374;-72
2023/04/14 00:17:14;;;;;;;;;;;;;;;;;;5136435;27;20026;-72
2023/04/14 00:19:41;;;;;;;;;;;;;;;;;;5136298;27;19923;-72
2023/04/14 00:22:08;;;;;;;;;;;;;;;;;;5135862;27;19929;-72
2023/04/14 00:24:39;;;;;;;;;;;;;;;;;;5136634;27;19928;-72
2023/04/14 00:27:06;;;;;;;;;;;;;;;;;;5136099;27;20513;-72
2023/04/14 00:29:33;;;;;;;;;;;;;;;;;;5136392;27;19923;-72
2023/04/14 00:32:00;;;;;;;;;;;;;;;;;;5136539;27;19923;-71
2023/04/14 00:34:27;;;;;;;;;;;;;;;;;;5121440;27;20434;-71
2023/04/14 00:36:54;;;;;;;;;;;;;;;;;;5115571;28;19930;-72
2023/04/14 00:39:21;;;;;;;;;;;;;;;;;;5127674;27;19989;-72
2023/04/14 00:41:48;;;;;;;;;;;;;;;;;;5136048;27;19961;-72
2023/04/14 00:44:15;;;;;;;;;;;;;;;;;;5135940;27;19923;-72
2023/04/14 00:46:42;;;;;;;;;;;;;;;;;;5136025;27;19924;-72
2023/04/14 00:49:09;;;;;;;;;;;;;;;;;;5135689;27;19923;-72
2023/04/14 00:51:36;;;;;;;;;;;;;;;;;;5135789;27;20022;-72
2023/04/14 00:54:03;;;;;;;;;;;;;;;;;;5136063;27;20394;-72
2023/04/14 00:56:30;;;;;;;;;;;;;;;;;;5134922;27;19924;-72
2023/04/14 00:58:57;;;;;;;;;;;;;;;;;;5135677;27;20381;-72
2023/04/14 01:01:24;;;;;;;;;;;;;;;;;;5135976;27;19923;-72
2023/04/14 01:03:51;;;;;;;;;;;;;;;;;;5136133;27;20305;-72
2023/04/14 01:06:18;;;;;;;;;;;;;;;;;;5136003;27;19957;-72
2023/04/14 01:08:45;;;;;;;;;;;;;;;;;;5135597;27;20305;-72
2023/04/14 01:11:12;;;;;;;;;;;;;;;;;;5135923;27;20282;-72
2023/04/14 01:13:39;;;;;;;;;;;;;;;;;;5121474;27;20297;-71
2023/04/14 01:16:06;;;;;;;;;;;;;;;;;;5115380;28;19923;-71
2023/04/14 01:18:33;;;;;;;;;;;;;;;;;;5115079;28;19930;-72
2023/04/14 01:21:00;;;;;;;;;;;;;;;;;;5115011;28;19978;-71
2023/04/14 01:23:27;;;;;;;;;;;;;;;;;;5115077;28;19930;-72
2023/04/14 01:25:54;;;;;;;;;;;;;;;;;;5114695;28;19930;-71
2023/04/14 01:28:21;;;;;;;;;;;;;;;;;;5114751;28;20090;-72
2023/04/14 01:30:48;;;;;;;;;;;;;;;;;;5115657;27;20293;-71
2023/04/14 01:33:15;;;;;;;;;;;;;;;;;;5114015;28;19924;-72
2023/04/14 01:35:42;;;;;;;;;;;;;;;;;;5114593;28;19930;-71
2023/04/14 01:38:09;;;;;;;;;;;;;;;;;;5114706;28;19931;-72
2023/04/14 01:40:36;;;;;;;;;;;;;;;;;;5115350;28;19931;-71
2023/04/14 01:43:03;;;;;;;;;;;;;;;;;;5114862;28;19924;-71
2023/04/14 01:45:30;;;;;;;;;;;;;;;;;;5114646;28;19930;-72
2023/04/14 01:47:57;;;;;;;;;;;;;;;;;;5126900;27;19927;-72
2023/04/14 01:50:24;;;;;;;;;;;;;;;;;;5135201;27;19923;-72
2023/04/14 01:52:52;;;;;;;;;;;;;;;;;;5134911;27;19930;-71
2023/04/14 01:55:19;;;;;;;;;;;;;;;;;;5134561;27;20002;-72
2023/04/14 01:57:46;;;;;;;;;;;;;;;;;;5134357;27;20018;-72
2023/04/14 02:00:13;;;;;;;;;;;;;;;;;;5134445;27;20437;-72
2023/04/14 02:02:41;;;;;;;;;;;;;;;;;;5134662;27;19923;-72
2023/04/14 02:05:08;;;;;;;;;;;;;;;;;;5133854;27;19923;-71
2023/04/14 02:07:35;;;;;;;;;;;;;;;;;;5134589;27;20259;-71
2023/04/14 02:10:02;;;;;;;;;;;;;;;;;;5134702;27;19923;-71
2023/04/14 02:12:29;;;;;;;;;;;;;;;;;;5134518;27;19928;-71
2023/04/14 02:14:56;;;;;;;;;;;;;;;;;;5134252;27;19945;-71
2023/04/14 02:17:23;;;;;;;;;;;;;;;;;;5134400;27;19930;-71
2023/04/14 02:19:50;;;;;;;;;;;;;;;;;;5134261;27;20018;-71
2023/04/14 02:22:17;;;;;;;;;;;;;;;;;;5113932;28;19924;-72
2023/04/14 02:24:44;;;;;;;;;;;;;;;;;;5113583;28;19959;-72
2023/04/14 02:27:11;;;;;;;;;;;;;;;;;;5113604;28;19924;-72
2023/04/14 02:29:38;;;;;;;;;;;;;;;;;;5113997;28;19931;-73
2023/04/14 02:32:05;;;;;;;;;;;;;;;;;;5113950;28;19924;-72
2023/04/14 02:34:32;;;;;;;;;;;;;;;;;;5113263;28;20287;-72
2023/04/14 02:36:59;;;;;;;;;;;;;;;;;;5113192;27;20314;-72
2023/04/14 02:39:26;;;;;;;;;;;;;;;;;;5113187;28;20313;-71
2023/04/14 02:41:53;;;;;;;;;;;;;;;;;;5113804;28;19924;-71
2023/04/14 02:44:20;;;;;;;;;;;;;;;;;;5113355;28;20010;-71
2023/04/14 02:46:47;;;;;;;;;;;;;;;;;;5125489;27;19930;-71
2023/04/14 02:49:14;;;;;;;;;;;;;;;;;;5134078;27;19934;-71
2023/04/14 02:51:41;;;;;;;;;;;;;;;;;;5133965;27;20370;-71
2023/04/14 02:54:08;;;;;;;;;;;;;;;;;;5132594;27;19923;-71
2023/04/14 02:56:36;;;;;;;;;;;;;;;;;;5133010;27;20724;-71
2023/04/14 02:59:03;;;;;;;;;;;;;;;;;;5134069;27;20342;-72
2023/04/14 03:01:31;;;;;;;;;;;;;;;;;;5133781;27;20301;-71
2023/04/14 03:03:58;;;;;;;;;;;;;;;;;;5133603;27;20018;-71
2023/04/14 03:06:26;;;;;;;;;;;;;;;;;;5133695;27;19923;-71
2023/04/14 03:08:53;;;;;;;;;;;;;;;;;;5135664;27;19992;-71
2023/04/14 03:11:20;;;;;;;;;;;;;;;;;;5134730;28;19978;-71
2023/04/14 03:13:47;;;;;;;;;;;;;;;;;;5135075;28;20023;-71
2023/04/14 03:16:14;;;;;;;;;;;;;;;;;;5133484;28;19949;-72
2023/04/14 03:18:41;;;;;;;;;;;;;;;;;;5133468;28;19980;-72
2023/04/14 03:21:08;;;;;;;;;;;;;;;;;;5133176;28;20018;-71
2023/04/14 03:23:35;;;;;;;;;;;;;;;;;;5133331;28;19934;-72
2023/04/14 03:26:02;;;;;;;;;;;;;;;;;;5133617;28;19929;-72
2023/04/14 03:28:29;;;;;;;;;;;;;;;;;;5128720;28;19928;-72
2023/04/14 03:30:56;;;;;;;;;;;;;;;;;;5112962;28;19924;-71
2023/04/14 03:33:23;;;;;;;;;;;;;;;;;;5112412;28;20378;-72
2023/04/14 03:35:50;;;;;;;;;;;;;;;;;;5112531;28;19930;-71
2023/04/14 03:38:18;;;;;;;;;;;;;;;;;;5112475;28;19924;-73
2023/04/14 03:40:46;;;;;;;;;;;;;;;;;;5113112;28;20294;-71
2023/04/14 03:43:18;;;;;;;;;;;;;;;;;;5112605;28;19923;-72
2023/04/14 03:45:46;;;;;;;;;;;;;;;;;;5125558;28;19924;-71
2023/04/14 03:48:13;;;;;;;;;;;;;;;;;;5135654;27;19974;-71
2023/04/14 03:50:40;;;;;;;;;;;;;;;;;;5137468;27;20018;-71
2023/04/14 03:53:08;;;;;;;;;;;;;;;;;;5137109;27;19924;-72
2023/04/14 03:55:35;;;;;;;;;;;;;;;;;;5137206;27;20006;-71
2023/04/14 03:58:02;;;;;;;;;;;;;;;;;;5137105;27;19929;-72
2023/04/14 04:00:29;;;;;;;;;;;;;;;;;;5137297;27;19924;-71
2023/04/14 04:02:56;;;;;;;;;;;;;;;;;;5128958;27;19946;-71
2023/04/14 04:05:23;;;;;;;;;;;;;;;;;;5116373;28;20386;-72
2023/04/14 04:07:50;;;;;;;;;;;;;;;;;;5116002;28;20390;-71
2023/04/14 04:10:17;;;;;;;;;;;;;;;;;;5116320;28;19924;-71
2023/04/14 04:12:44;;;;;;;;;;;;;;;;;;5116204;28;19931;-72
2023/04/14 04:15:10;;;;;;;;;;;;;;;;;;5116442;28;19924;-71
2023/04/14 04:17:37;;;;;;;;;;;;;;;;;;5116149;28;19924;-72
2023/04/14 04:20:04;;;;;;;;;;;;;;;;;;5116226;27;19923;-71
2023/04/14 04:22:32;;;;;;;;;;;;;;;;;;5115757;28;20030;-71
2023/04/14 04:24:59;;;;;;;;;;;;;;;;;;5116049;28;19924;-71
2023/04/14 04:27:26;;;;;;;;;;;;;;;;;;5115878;28;19931;-71
2023/04/14 04:29:53;;;;;;;;;;;;;;;;;;5115931;28;19924;-71
2023/04/14 04:32:20;;;;;;;;;;;;;;;;;;5115177;28;19959;-71
2023/04/14 04:34:47;;;;;;;;;;;;;;;;;;5115449;28;19924;-71
2023/04/14 04:37:13;;;;;;;;;;;;;;;;;;5125732;27;19927;-71
2023/04/14 04:39:40;;;;;;;;;;;;;;;;;;5135374;27;20018;-70
2023/04/14 04:42:07;;;;;;;;;;;;;;;;;;5135713;27;19930;-71
2023/04/14 04:44:35;;;;;;;;;;;;;;;;;;5135163;27;19923;-71
2023/04/14 04:47:02;;;;;;;;;;;;;;;;;;5135414;27;19923;-71
2023/04/14 04:49:29;;;;;;;;;;;;;;;;;;5135453;27;19930;-71
2023/04/14 04:51:56;;;;;;;;;;;;;;;;;;5135841;27;19924;-71
2023/04/14 04:54:23;;;;;;;;;;;;;;;;;;5123072;27;20279;-71
2023/04/14 04:56:50;;;;;;;;;;;;;;;;;;5115436;28;20034;-70
2023/04/14 04:59:17;;;;;;;;;;;;;;;;;;5114183;28;19924;-71
2023/04/14 05:01:44;;;;;;;;;;;;;;;;;;5114739;28;19923;-71
2023/04/14 05:04:11;;;;;;;;;;;;;;;;;;5114911;28;19924;-72
2023/04/14 05:06:38;;;;;;;;;;;;;;;;;;5114844;28;19931;-71
2023/04/14 05:09:05;;;;;;;;;;;;;;;;;;5114443;28;19924;-72
2023/04/14 05:11:32;;;;;;;;;;;;;;;;;;5128818;27;19970;-72
2023/04/14 05:13:59;;;;;;;;;;;;;;;;;;5135778;27;19996;-71
2023/04/14 05:16:27;;;;;;;;;;;;;;;;;;5135985;27;19927;-72
2023/04/14 05:18:54;;;;;;;;;;;;;;;;;;5135458;27;19923;-72
2023/04/14 05:21:21;;;;;;;;;;;;;;;;;;5135624;27;19927;-71
2023/04/14 05:23:48;;;;;;;;;;;;;;;;;;5135185;27;20014;-72
2023/04/14 05:26:15;;;;;;;;;;;;;;;;;;5134939;27;20018;-72
2023/04/14 05:28:42;;;;;;;;;;;;;;;;;;5119728;27;20051;-72
2023/04/14 05:31:09;;;;;;;;;;;;;;;;;;5114916;28;19930;-73
2023/04/14 05:33:37;;;;;;;;;;;;;;;;;;5115022;28;19923;-71
2023/04/14 05:36:04;;;;;;;;;;;;;;;;;;5114989;28;19931;-71
2023/04/14 05:38:31;;;;;;;;;;;;;;;;;;5115410;27;19927;-72
2023/04/14 05:40:58;;;;;;;;;;;;;;;;;;5134674;27;19923;-72
2023/04/14 05:43:25;;;;;;;;;;;;;;;;;;5135092;27;19924;-70
2023/04/14 05:45:53;;;;;;;;;;;;;;;;;;5134658;27;20024;-72
2023/04/14 05:48:23;;;;;;;;;;;;;;;;;;5134927;27;19976;-72
2023/04/14 05:50:50;;;;;;;;;;;;;;;;;;5135056;27;19927;-72
2023/04/14 05:53:18;;;;;;;;;;;;;;;;;;5134703;27;20014;-71
2023/04/14 05:55:46;;;;;;;;;;;;;;;;;;5134223;27;19923;-71
2023/04/14 05:58:13;;;;;;;;;;;;;;;;;;5134393;27;20310;-71
2023/04/14 06:00:40;;;;;;;;;;;;;;;;;;5134580;27;19935;-71
2023/04/14 06:03:07;;;;;;;;;;;;;;;;;;5115585;27;19987;-71
2023/04/14 06:05:34;;;;;;;;;;;;;;;;;;5113598;28;19923;-71
2023/04/14 06:08:01;;;;;;;;;;;;;;;;;;5113690;28;19938;-72
2023/04/14 06:10:30;;;;;;;;;;;;;;;;;;5113574;28;19924;-71
2023/04/14 06:12:57;;;;;;;;;;;;;;;;;;5113851;28;19969;-72
2023/04/14 06:15:27;;;;;;;;;;;;;;;;;;5113868;28;20023;-71
2023/04/14 06:17:54;;;;;;;;;;;;;;;;;;5114053;27;19924;-71
2023/04/14 06:20:20;;;;;;;;;;;;;;;;;;5133966;27;20014;-70
2023/04/14 06:22:47;;;;;;;;;;;;;;;;;;5134158;27;19924;-72
2023/04/14 06:25:15;;;;;;;;;;;;;;;;;;5134003;27;19978;-72
2023/04/14 06:27:42;;;;;;;;;;;;;;;;;;5133859;27;19930;-72
2023/04/14 06:30:09;;;;;;;;;;;;;;;;;;5134167;27;19923;-71
2023/04/14 06:32:36;;;;;;;;;;;;;;;;;;5133784;27;20010;-71
2023/04/14 06:35:03;;;;;;;;;;;;;;;;;;5114678;27;20006;-71
2023/04/14 06:37:30;;;;;;;;;;;;;;;;;;5133460;27;19946;-72
2023/04/14 06:39:57;;;;;;;;;;;;;;;;;;5134178;27;20022;-71
2023/04/14 06:42:24;;;;;;;;;;;;;;;;;;5133703;27;19923;-72
2023/04/14 06:44:51;;;;;;;;;;;;;;;;;;5133578;27;19923;-70
2023/04/14 06:47:19;;;;;;;;;;;;;;;;;;5133795;27;19929;-71
2023/04/14 06:49:46;;;;;;;;;;;;;;;;;;5134023;27;20374;-71
2023/04/14 06:52:13;;;;;;;;;;;;;;;;;;5133594;27;20014;-71
2023/04/14 06:54:41;;;;;;;;;;;;;;;;;;5133741;27;19956;-71
2023/04/14 06:57:08;;;;;;;;;;;;;;;;;;5134030;27;19931;-72
2023/04/14 06:59:35;;;;;;;;;;;;;;;;;;5133446;27;19924;-72
2023/04/14 07:02:02;;;;;;;;;;;;;;;;;;5133568;27;19930;-72
2023/04/14 07:04:29;;;;;;;;;;;;;;;;;;5133917;27;20449;-71
2023/04/14 07:06:56;;;;;;;;;;;;;;;;;;5134185;27;19923;-71
2023/04/14 07:09:23;;;;;;;;;;;;;;;;;;5133414;27;19927;-72
2023/04/14 07:11:52;;;;;;;;;;;;;;;;;;5134796;27;19923;-72
2023/04/14 07:14:18;;;;;;;;;;;;;;;;;;5134631;28;20121;-72
2023/04/14 07:16:45;;;;;;;;;;;;;;;;;;5134775;28;20013;-72
2023/04/14 07:19:12;;;;;;;;;;;;;;;;;;5134020;28;19924;-71
2023/04/14 07:21:40;;;;;;;;;;;;;;;;;;5133657;27;20014;-70
2023/04/14 07:24:06;;;;;;;;;;;;;;;;;;5137450;27;19923;-72
2023/04/14 07:26:33;;;;;;;;;;;;;;;;;;5137081;27;19969;-71
2023/04/14 07:29:01;;;;;;;;;;;;;;;;;;5137997;27;20117;-72
2023/04/14 07:31:28;;;;;;;;;;;;;;;;;;5137795;27;19949;-72
2023/04/14 07:33:55;;;;;;;;;;;;;;;;;;5127491;27;19931;-73
2023/04/14 07:36:22;;;;;;;;;;;;;;;;;;5116813;28;20465;-72
2023/04/14 07:38:49;;;;;;;;;;;;;;;;;;5116771;28;19986;-72
2023/04/14 07:41:15;;;;;;;;;;;;;;;;;;5137376;27;19970;-71
2023/04/14 07:43:43;;;;;;;;;;;;;;;;;;5131029;27;20010;-73
2023/04/14 07:46:10;;;;;;;;;;;;;;;;;;5116902;28;19931;-73
2023/04/14 07:48:37;;;;;;;;;;;;;;;;;;5116869;28;19924;-72
2023/04/14 07:51:04;;;;;;;;;;;;;;;;;;5116658;28;19924;-71
2023/04/14 07:53:31;;;;;;;;;;;;;;;;;;5116624;28;19923;-71
2023/04/14 07:55:58;;;;;;;;;;;;;;;;;;5116684;28;20405;-74
2023/04/14 07:58:25;;;;;;;;;;;;;;;;;;5116363;28;19992;-73
2023/04/14 08:00:52;;;;;;;;;;;;;;;;;;5117661;27;19982;-71
2023/04/14 08:03:19;;;;;;;;;;;;;;;;;;5115938;28;19928;-70
2023/04/14 08:05:46;;;;;;;;;;;;;;;;;;5115842;28;19969;-71
2023/04/14 08:08:14;;;;;;;;;;;;;;;;;;5116034;28;19927;-71
2023/04/14 08:10:41;;;;;;;;;;;;;;;;;;5116498;28;19924;-73
2023/04/14 08:13:08;;;;;;;;;;;;;;;;;;5115887;28;20511;-72
2023/04/14 08:15:35;;;;;;;;;;;;;;;;;;5116204;28;19946;-73
2023/04/14 08:18:02;;;;;;;;;;;;;;;;;;5125881;27;20275;-73
2023/04/14 08:20:29;;;;;;;;;;;;;;;;;;5136789;27;19924;-72
2023/04/14 08:22:56;;;;;;;;;;;;;;;;;;5136647;27;19929;-73
2023/04/14 08:25:24;;;;;;;;;;;;;;;;;;5136987;27;19924;-73
2023/04/14 08:27:51;;;;;;;;;;;;;;;;;;5136160;27;19956;-72
2023/04/14 08:30:18;;;;;;;;;;;;;;;;;;5136269;27;19924;-73
2023/04/14 08:32:45;;;;;;;;;;;;;;;;;;5136787;27;19927;-72
2023/04/14 08:35:12;;;;;;;;;;;;;;;;;;5134183;27;19930;-74
2023/04/14 08:37:39;;;;;;;;;;;;;;;;;;5136518;27;20358;-73
2023/04/14 08:40:06;;;;;;;;;;;;;;;;;;5136432;27;19976;-73
2023/04/14 08:42:33;;;;;;;;;;;;;;;;;;5136515;27;19957;-74
2023/04/14 08:45:00;;;;;;;;;;;;;;;;;;5136699;27;20026;-73
2023/04/14 08:47:28;;;;;;;;;;;;;;;;;;5136389;27;19924;-73
2023/04/14 08:49:55;;;;;;;;;;;;;;;;;;5136406;27;19923;-72
2023/04/14 08:52:22;;;;;;;;;;;;;;;;;;5135911;27;19949;-72
2023/04/14 08:54:49;;;;;;;;;;;;;;;;;;5135590;27;19924;-72
2023/04/14 08:57:16;;;;;;;;;;;;;;;;;;5136006;27;20275;-71
2023/04/14 08:59:43;;;;;;;;;;;;;;;;;;5135998;27;19978;-73
2023/04/14 09:02:10;;;;;;;;;;;;;;;;;;5135929;27;19982;-73
2023/04/14 09:04:38;;;;;;;;;;;;;;;;;;5135876;27;20018;-73
2023/04/14 09:07:05;;;;;;;;;;;;;;;;;;5135621;27;20339;-74
2023/04/14 09:09:33;;;;;;;;;;;;;;;;;;5135319;27;19989;-73
2023/04/14 09:12:01;;;;;;;;;;;;;;;;;;5135409;27;20462;-73
2023/04/14 09:14:29;;;;;;;;;;;;;;;;;;5136113;27;19930;-71
2023/04/14 09:16:56;;;;;;;;;;;;;;;;;;5135561;27;19930;-72
2023/04/14 09:19:23;;;;;;;;;;;;;;;;;;5135226;27;19992;-72
2023/04/14 09:21:50;;;;;;;;;;;;;;;;;;5135465;27;20332;-73
2023/04/14 09:24:22;;;;;;;;;;;;;;;;;;5135273;27;20306;-73
2023/04/14 09:26:49;;;;;;;;;;;;;;;;;;5134624;27;19976;-73
2023/04/14 09:29:16;;;;;;;;;;;;;;;;;;5135369;27;20431;-73
2023/04/14 09:31:44;;;;;;;;;;;;;;;;;;5135493;27;20516;-72
2023/04/14 09:34:11;;;;;;;;;;;;;;;;;;5122857;27;19924;-73
2023/04/14 09:36:38;;;;;;;;;;;;;;;;;;5118721;27;19923;-73
2023/04/14 09:39:05;;;;;;;;;;;;;;;;;;5135068;27;19924;-74
2023/04/14 09:41:32;;;;;;;;;;;;;;;;;;5135056;27;19927;-73
2023/04/14 09:44:00;;;;;;;;;;;;;;;;;;5117657;27;20003;-73
2023/04/14 09:46:27;;;;;;;;;;;;;;;;;;5114344;28;19970;-73
2023/04/14 09:48:54;;;;;;;;;;;;;;;;;;5113977;28;20400;-72
2023/04/14 09:51:21;;;;;;;;;;;;;;;;;;5114436;28;20007;-72
2023/04/14 09:53:48;;;;;;;;;;;;;;;;;;5113674;28;20279;-72
2023/04/14 09:56:15;;;;;;;;;;;;;;;;;;5114188;28;20000;-72
2023/04/14 09:58:43;;;;;;;;;;;;;;;;;;5114205;28;19974;-72
2023/04/14 10:01:10;;;;;;;;;;;;;;;;;;5114670;27;19931;-73
2023/04/14 10:03:37;;;;;;;;;;;;;;;;;;5114267;28;19923;-71
2023/04/14 10:06:04;;;;;;;;;;;;;;;;;;5114177;28;19969;-73
2023/04/14 10:08:31;;;;;;;;;;;;;;;;;;5113763;28;19924;-73
2023/04/14 10:10:58;;;;;;;;;;;;;;;;;;5114219;28;19951;-72
2023/04/14 10:13:25;;;;;;;;;;;;;;;;;;5113379;28;20421;-72
2023/04/14 10:15:52;;;;;;;;;;;;;;;;;;5114025;28;19935;-72
2023/04/14 10:18:19;;;;;;;;;;;;;;;;;;5134455;27;19934;-71
2023/04/14 10:20:47;;;;;;;;;;;;;;;;;;5134679;27;19923;-71
2023/04/14 10:23:14;;;;;;;;;;;;;;;;;;5134189;27;19942;-72
2023/04/14 10:25:41;;;;;;;;;;;;;;;;;;5134242;27;20409;-72
2023/04/14 10:28:11;;;;;;;;;;;;;;;;;;5134491;27;19923;-72
2023/04/14 10:30:38;;;;;;;;;;;;;;;;;;5134184;27;20449;-72
2023/04/14 10:33:05;;;;;;;;;;;;;;;;;;5131834;27;19924;-73
2023/04/14 10:35:32;;;;;;;;;;;;;;;;;;5119731;27;19972;-73
2023/04/14 10:38:00;;;;;;;;;;;;;;;;;;5134217;27;19924;-72
2023/04/14 10:40:27;;;;;;;;;;;;;;;;;;5134092;27;19931;-71
2023/04/14 10:42:54;;;;;;;;;;;;;;;;;;5134175;27;19927;-71
2023/04/14 10:45:21;;;;;;;;;;;;;;;;;;5133829;27;19923;-72
2023/04/14 10:47:48;;;;;;;;;;;;;;;;;;5134270;27;20032;-72
2023/04/14 10:50:16;;;;;;;;;;;;;;;;;;5131177;27;19923;-72
2023/04/14 10:52:44;;;;;;;;;;;;;;;;;;5113369;28;19924;-72
2023/04/14 10:55:11;;;;;;;;;;;;;;;;;;5113375;28;19924;-72
2023/04/14 10:57:38;;;;;;;;;;;;;;;;;;5112421;28;19973;-72
2023/04/14 11:00:06;;;;;;;;;;;;;;;;;;5113918;28;20384;-73
2023/04/14 11:02:34;;;;;;;;;;;;;;;;;;5113381;28;19927;-72
2023/04/14 11:05:01;;;;;;;;;;;;;;;;;;5113411;28;19924;-71
2023/04/14 11:07:28;;;;;;;;;;;;;;;;;;5117461;27;19973;-71
2023/04/14 11:09:55;;;;;;;;;;;;;;;;;;5133550;27;19976;-72
2023/04/14 11:12:22;;;;;;;;;;;;;;;;;;5133690;27;19930;-71
2023/04/14 11:14:49;;;;;;;;;;;;;;;;;;5133377;27;19930;-72
2023/04/14 11:17:16;;;;;;;;;;;;;;;;;;5133775;27;19946;-72
2023/04/14 11:19:43;;;;;;;;;;;;;;;;;;5133850;28;19923;-72
2023/04/14 11:22:10;;;;;;;;;;;;;;;;;;5134073;28;20305;-72
2023/04/14 11:24:37;;;;;;;;;;;;;;;;;;5133735;28;19928;-72
2023/04/14 11:27:04;;;;;;;;;;;;;;;;;;5135407;28;19928;-72
2023/04/14 11:29:31;;;;;;;;;;;;;;;;;;5134602;28;19963;-71
2023/04/14 11:31:59;;;;;;;;;;;;;;;;;;5133839;27;19964;-72
2023/04/14 11:34:27;;;;;;;;;;;;;;;;;;5127175;28;19930;-72
2023/04/14 11:36:54;;;;;;;;;;;;;;;;;;5133247;28;19924;-73
2023/04/14 11:39:21;;;;;;;;;;;;;;;;;;5132888;28;19953;-71
2023/04/14 11:41:48;;;;;;;;;;;;;;;;;;5125115;28;19924;-71
2023/04/14 11:44:15;;;;;;;;;;;;;;;;;;5113099;28;19930;-72
2023/04/14 11:46:42;;;;;;;;;;;;;;;;;;5112777;28;20018;-72
2023/04/14 11:49:10;;;;;;;;;;;;;;;;;;5112980;28;19924;-72
2023/04/14 11:51:37;;;;;;;;;;;;;;;;;;5112280;28;19923;-71
2023/04/14 11:54:05;;;;;;;;;;;;;;;;;;5112503;28;19923;-72
2023/04/14 11:56:32;;;;;;;;;;;;;;;;;;5112488;28;19923;-72
2023/04/14 11:58:59;;;;;;;;;;;;;;;;;;5121728;28;20019;-71
2023/04/14 12:01:26;;;;;;;;;;;;;;;;;;5132787;28;19970;-72
2023/04/14 12:03:53;;;;;;;;;;;;;;;;;;5133159;28;20271;-72
2023/04/14 12:06:20;;;;;;;;;;;;;;;;;;5132832;28;19947;-72
2023/04/14 12:08:49;;;;;;;;;;;;;;;;;;5134263;27;19923;-72
2023/04/14 12:11:16;;;;;;;;;;;;;;;;;;5136998;27;19924;-72
2023/04/14 12:13:43;;;;;;;;;;;;;;;;;;5136979;27;19924;-71
2023/04/14 12:16:10;;;;;;;;;;;;;;;;;;5126280;27;19924;-72
2023/04/14 12:18:38;;;;;;;;;;;;;;;;;;5116043;28;19970;-72
2023/04/14 12:21:05;;;;;;;;;;;;;;;;;;5116218;28;19923;-71
2023/04/14 12:23:32;;;;;;;;;;;;;;;;;;5116300;28;20252;-72
2023/04/14 12:25:59;;;;;;;;;;;;;;;;;;5116357;28;19924;-72
2023/04/14 12:28:26;;;;;;;;;;;;;;;;;;5116024;28;19988;-72
2023/04/14 12:30:53;;;;;;;;;;;;;;;;;;5116358;28;19924;-72
2023/04/14 12:33:20;;;;;;;;;;;;;;;;;;5127067;27;20377;-72
2023/04/14 12:35:47;;;;;;;;;;;;;;;;;;5136310;27;20370;-71
2023/04/14 12:38:15;;;;;;;;;;;;;;;;;;5136260;27;19927;-72
2023/04/14 12:40:42;;;;;;;;;;;;;;;;;;5136202;27;20489;-72
2023/04/14 12:43:09;;;;;;;;;;;;;;;;;;5136186;27;20357;-72
2023/04/14 12:45:36;;;;;;;;;;;;;;;;;;5136429;27;20000;-72
2023/04/14 12:48:03;;;;;;;;;;;;;;;;;;5135745;27;20014;-72
2023/04/14 12:50:32;;;;;;;;;;;;;;;;;;5135469;27;19949;-71
2023/04/14 12:53:00;;;;;;;;;;;;;;;;;;5135461;27;19923;-71
2023/04/14 12:55:27;;;;;;;;;;;;;;;;;;5135809;27;19927;-71
2023/04/14 12:57:54;;;;;;;;;;;;;;;;;;5135735;27;19929;-75
2023/04/14 13:00:21;;;;;;;;;;;;;;;;;;5135503;27;19962;-74
2023/04/14 13:02:48;;;;;;;;;;;;;;;;;;5135399;27;20063;-75
2023/04/14 13:05:15;;;;;;;;;;;;;;;;;;5135563;27;20009;-72
2023/04/14 13:07:42;;;;;;;;;;;;;;;;;;5134250;27;20327;-72
2023/04/14 13:10:09;;;;;;;;;;;;;;;;;;5135550;27;19924;-72
2023/04/14 13:12:36;;;;;;;;;;;;;;;;;;5135667;27;19923;-72
2023/04/14 13:15:03;;;;;;;;;;;;;;;;;;5135676;27;19927;-72
2023/04/14 13:17:30;;;;;;;;;;;;;;;;;;5135762;27;19923;-72
2023/04/14 13:19:57;;;;;;;;;;;;;;;;;;5134664;27;19974;-72
2023/04/14 13:22:24;;;;;;;;;;;;;;;;;;5135244;27;19962;-72
2023/04/14 13:24:51;;;;;;;;;;;;;;;;;;5134376;27;19969;-71
2023/04/14 13:27:18;;;;;;;;;;;;;;;;;;5135452;27;19937;-72
2023/04/14 13:29:45;;;;;;;;;;;;;;;;;;5135462;27;19927;-72
2023/04/14 13:32:12;;;;;;;;;;;;;;;;;;5131963;27;19953;-72
2023/04/14 13:34:39;;;;;;;;;;;;;;;;;;5114765;28;20010;-72
2023/04/14 13:37:06;;;;;;;;;;;;;;;;;;5114746;28;20446;-72
2023/04/14 13:39:33;;;;;;;;;;;;;;;;;;5114505;28;19991;-72
2023/04/14 13:42:00;;;;;;;;;;;;;;;;;;5132414;27;19923;-72
2023/04/14 13:44:27;;;;;;;;;;;;;;;;;;5134869;27;20010;-72
2023/04/14 13:46:55;;;;;;;;;;;;;;;;;;5135325;27;20363;-72
2023/04/14 13:49:22;;;;;;;;;;;;;;;;;;5135123;27;19968;-72
2023/04/14 13:51:48;;;;;;;;;;;;;;;;;;5135034;27;19923;-73
2023/04/14 13:54:15;;;;;;;;;;;;;;;;;;5134401;27;19924;-72
2023/04/14 13:56:42;;;;;;;;;;;;;;;;;;5135024;27;20360;-72
2023/04/14 13:59:09;;;;;;;;;;;;;;;;;;5133802;27;20342;-72
2023/04/14 14:01:36;;;;;;;;;;;;;;;;;;5134860;27;19923;-72
2023/04/14 14:04:03;;;;;;;;;;;;;;;;;;5134550;27;20445;-72
2023/04/14 14:06:30;;;;;;;;;;;;;;;;;;5134481;27;20289;-73
2023/04/14 14:08:57;;;;;;;;;;;;;;;;;;5134547;27;20018;-73
2023/04/14 14:11:24;;;;;;;;;;;;;;;;;;5134152;27;20389;-73
2023/04/14 14:13:51;;;;;;;;;;;;;;;;;;5134804;27;19924;-72
2023/04/14 14:16:18;;;;;;;;;;;;;;;;;;5133352;27;19924;-74
2023/04/14 14:18:46;;;;;;;;;;;;;;;;;;5133941;27;20304;-72
2023/04/14 14:21:13;;;;;;;;;;;;;;;;;;5134086;27;19977;-73
2023/04/14 14:23:40;;;;;;;;;;;;;;;;;;5133673;27;20339;-72
2023/04/14 14:26:07;;;;;;;;;;;;;;;;;;5133392;27;20411;-73
2023/04/14 14:28:34;;;;;;;;;;;;;;;;;;5133789;27;20461;-72
2023/04/14 14:31:01;;;;;;;;;;;;;;;;;;5132421;27;19980;-71
2023/04/14 14:33:28;;;;;;;;;;;;;;;;;;5112794;28;19954;-72
2023/04/14 14:35:55;;;;;;;;;;;;;;;;;;5113414;28;19924;-72
2023/04/14 14:38:22;;;;;;;;;;;;;;;;;;5112997;28;20032;-73
2023/04/14 14:40:49;;;;;;;;;;;;;;;;;;5113387;28;20037;-72
2023/04/14 14:43:16;;;;;;;;;;;;;;;;;;5113300;28;19969;-72
2023/04/14 14:45:42;;;;;;;;;;;;;;;;;;5116729;27;20019;-73
2023/04/14 14:48:10;;;;;;;;;;;;;;;;;;5131514;27;19924;-72
2023/04/14 14:50:37;;;;;;;;;;;;;;;;;;5113012;28;19924;-73
2023/04/14 14:53:04;;;;;;;;;;;;;;;;;;5129634;27;19933;-73
2023/04/14 14:55:31;;;;;;;;;;;;;;;;;;5133008;27;20386;-73
2023/04/14 14:57:58;;;;;;;;;;;;;;;;;;5133733;27;20337;-72
2023/04/14 15:00:25;;;;;;;;;;;;;;;;;;5133708;27;20289;-74
2023/04/14 15:02:52;;;;;;;;;;;;;;;;;;5133410;27;20378;-73
2023/04/14 15:05:19;;;;;;;;;;;;;;;;;;5132739;27;19981;-72
2023/04/14 15:07:46;;;;;;;;;;;;;;;;;;5133777;27;19930;-73
2023/04/14 15:10:13;;;;;;;;;;;;;;;;;;5133895;27;19923;-73
2023/04/14 15:12:40;;;;;;;;;;;;;;;;;;5133385;27;19981;-73
2023/04/14 15:15:07;;;;;;;;;;;;;;;;;;5133174;28;20013;-72
2023/04/14 15:17:34;;;;;;;;;;;;;;;;;;5133336;28;19927;-72
2023/04/14 15:20:04;;;;;;;;;;;;;;;;;;5133168;28;19924;-71
2023/04/14 15:22:31;;;;;;;;;;;;;;;;;;5132184;28;20262;-71
2023/04/14 15:24:58;;;;;;;;;;;;;;;;;;5133761;28;19966;-72
2023/04/14 15:27:25;;;;;;;;;;;;;;;;;;5133831;28;19998;-72
2023/04/14 15:29:53;;;;;;;;;;;;;;;;;;5133773;28;19923;-73
2023/04/14 15:32:23;;;;;;;;;;;;;;;;;;5133549;28;19923;-72
2023/04/14 15:34:50;;;;;;;;;;;;;;;;;;5134917;27;20037;-73
2023/04/14 15:37:17;;;;;;;;;;;;;;;;;;5135624;28;19978;-71
2023/04/14 15:39:44;;;;;;;;;;;;;;;;;;5127876;28;20023;-72
2023/04/14 15:42:11;;;;;;;;;;;;;;;;;;5113929;28;19930;-71
2023/04/14 15:44:38;;;;;;;;;;;;;;;;;;5115708;28;20018;-72
2023/04/14 15:47:05;;;;;;;;;;;;;;;;;;5116539;28;20010;-72
2023/04/14 15:49:32;;;;;;;;;;;;;;;;;;5116899;28;19945;-71
2023/04/14 15:51:59;;;;;;;;;;;;;;;;;;5116800;28;20000;-71
2023/04/14 15:54:26;;;;;;;;;;;;;;;;;;5116318;28;20266;-64
2023/04/14 15:56:53;;;;;;;;;;;;;;;;;;5124371;27;20393;-65
2023/04/14 15:59:20;;;;;;;;;;;;;;;;;;5136751;27;19924;-65
2023/04/14 16:01:47;;;;;;;;;;;;;;;;;;5136597;27;19924;-65
2023/04/14 16:04:14;;;;;;;;;;;;;;;;;;5136627;27;20488;-65
2023/04/14 16:06:41;;;;;;;;;;;;;;;;;;5136751;27;20006;-65
2023/04/14 16:09:08;;;;;;;;;;;;;;;;;;5136947;27;20014;-65
2023/04/14 16:11:35;;;;;;;;;;;;;;;;;;5137113;27;19923;-65
2023/04/14 16:14:02;;;;;;;;;;;;;;;;;;5136389;27;19923;-65
2023/04/14 16:16:29;;;;;;;;;;;;;;;;;;5136950;27;19923;-65
2023/04/14 16:18:56;;;;;;;;;;;;;;;;;;5137055;27;20352;-72
2023/04/14 16:21:24;;;;;;;;;;;;;;;;;;5136959;27;19984;-73
2023/04/14 16:23:59;;;;;;;;;;;;;;;;;;5136749;27;19992;-72
2023/04/14 16:26:26;;;;;;;;;;;;;;;;;;5133200;27;19974;-74
2023/04/14 16:28:53;;;;;;;;;;;;;;;;;;5119019;27;19930;-72
2023/04/14 16:31:20;;;;;;;;;;;;;;;;;;5128589;27;19932;-72
2023/04/14 16:33:47;;;;;;;;;;;;;;;;;;5130751;27;19924;-72
2023/04/14 16:36:15;;;;;;;;;;;;;;;;;;5119859;27;19927;-73
2023/04/14 16:38:42;;;;;;;;;;;;;;;;;;5130393;27;19924;-72
2023/04/14 16:41:09;;;;;;;;;;;;;;;;;;5117481;27;19931;-72
2023/04/14 16:43:36;;;;;;;;;;;;;;;;;;5138439;27;20424;-73